Orlik, Russia
Current Conditions -  °F | °C
As of 6:00 PM on Thursday 23 Oct 2014 (Local Time) from UIII Reporting Station
Smoke Smoke  
Wind Chill: 30°   Ceiling: 10000
Heat Index: 34°   Visibility: 0.93mi
Dew Point: 30°   Wind: 4mph
Humidity: 87%   Direction: 300°WNW
Pressure: 29.83"   Gusts: NA
Location:  52.51°N, 99.83°E
Report Text: UIII 231000Z 30002MPS 1500 R30/1500 BR FU SCT026 BKN100 OVC20001/M01 Q1010 NOSIG RMK QFE713/0951 30190055
Loading
Personal Weather Stations






























Interactive Weather Map New forecast layout! Learn more

10-Day Weather Forecast

Advertisements
Track Severe Weather on mobile